sensor_id;sensor_type;location;lat;lon;timestamp;P1;durP1;ratioP1;P2;durP2;ratioP2
45620;SDS011;31345;51.522;10.702;2023-06-22T00:02:03;28.08;;;14.02;;
45620;SDS011;31345;51.522;10.702;2023-06-22T00:04:36;17.95;;;11.10;;
45620;SDS011;31345;51.522;10.702;2023-06-22T00:07:08;20.33;;;11.73;;
45620;SDS011;31345;51.522;10.702;2023-06-22T00:09:41;21.48;;;12.57;;
45620;SDS011;31345;51.522;10.702;2023-06-22T00:12:13;25.13;;;12.20;;
45620;SDS011;31345;51.522;10.702;2023-06-22T00:14:45;24.75;;;13.75;;
45620;SDS011;31345;51.522;10.702;2023-06-22T00:17:19;23.90;;;13.75;;
45620;SDS011;31345;51.522;10.702;2023-06-22T00:19:47;18.83;;;12.00;;
45620;SDS011;31345;51.522;10.702;2023-06-22T00:22:27;28.83;;;13.73;;
45620;SDS011;31345;51.522;10.702;2023-06-22T00:25:00;18.17;;;13.02;;
45620;SDS011;31345;51.522;10.702;2023-06-22T00:27:27;25.33;;;14.10;;
45620;SDS011;31345;51.522;10.702;2023-06-22T00:29:55;22.25;;;13.68;;
45620;SDS011;31345;51.522;10.702;2023-06-22T00:32:23;27.25;;;13.93;;
45620;SDS011;31345;51.522;10.702;2023-06-22T00:34:56;26.88;;;13.82;;
45620;SDS011;31345;51.522;10.702;2023-06-22T00:37:28;23.08;;;13.57;;
45620;SDS011;31345;51.522;10.702;2023-06-22T00:39:56;26.63;;;14.00;;
45620;SDS011;31345;51.522;10.702;2023-06-22T00:42:28;20.85;;;13.30;;
45620;SDS011;31345;51.522;10.702;2023-06-22T00:45:01;23.40;;;12.85;;
45620;SDS011;31345;51.522;10.702;2023-06-22T00:47:30;24.98;;;13.55;;
45620;SDS011;31345;51.522;10.702;2023-06-22T00:49:59;23.13;;;13.45;;
45620;SDS011;31345;51.522;10.702;2023-06-22T00:52:32;27.17;;;13.63;;
45620;SDS011;31345;51.522;10.702;2023-06-22T00:55:06;27.58;;;13.63;;
45620;SDS011;31345;51.522;10.702;2023-06-22T00:57:39;25.95;;;12.40;;
45620;SDS011;31345;51.522;10.702;2023-06-22T01:00:12;27.45;;;12.77;;
45620;SDS011;31345;51.522;10.702;2023-06-22T01:02:47;31.27;;;13.63;;
45620;SDS011;31345;51.522;10.702;2023-06-22T01:05:23;26.73;;;13.80;;
45620;SDS011;31345;51.522;10.702;2023-06-22T01:08:16;20.13;;;13.93;;
45620;SDS011;31345;51.522;10.702;2023-06-22T01:11:00;27.85;;;15.15;;
45620;SDS011;31345;51.522;10.702;2023-06-22T01:13:35;25.33;;;14.68;;
45620;SDS011;31345;51.522;10.702;2023-06-22T01:16:10;26.40;;;13.93;;
45620;SDS011;31345;51.522;10.702;2023-06-22T01:18:44;28.85;;;14.48;;
45620;SDS011;31345;51.522;10.702;2023-06-22T01:21:19;23.95;;;13.93;;
45620;SDS011;31345;51.522;10.702;2023-06-22T01:23:53;28.67;;;14.48;;
45620;SDS011;31345;51.522;10.702;2023-06-22T01:26:36;28.67;;;13.23;;
45620;SDS011;31345;51.522;10.702;2023-06-22T01:29:12;27.27;;;14.13;;
45620;SDS011;31345;51.522;10.702;2023-06-22T01:31:42;26.83;;;13.63;;
45620;SDS011;31345;51.522;10.702;2023-06-22T01:34:16;30.02;;;13.90;;
45620;SDS011;31345;51.522;10.702;2023-06-22T01:36:44;25.55;;;13.70;;
45620;SDS011;31345;51.522;10.702;2023-06-22T01:39:13;24.00;;;16.50;;
45620;SDS011;31345;51.522;10.702;2023-06-22T01:41:47;21.42;;;14.30;;
45620;SDS011;31345;51.522;10.702;2023-06-22T01:44:21;17.45;;;14.07;;
45620;SDS011;31345;51.522;10.702;2023-06-22T01:46:56;18.08;;;15.35;;
45620;SDS011;31345;51.522;10.702;2023-06-22T01:49:29;20.90;;;15.15;;
45620;SDS011;31345;51.522;10.702;2023-06-22T01:51:57;20.33;;;13.77;;
45620;SDS011;31345;51.522;10.702;2023-06-22T01:54:30;21.85;;;14.02;;
45620;SDS011;31345;51.522;10.702;2023-06-22T01:56:57;18.92;;;13.95;;
45620;SDS011;31345;51.522;10.702;2023-06-22T01:59:28;21.52;;;13.32;;
45620;SDS011;31345;51.522;10.702;2023-06-22T02:02:06;20.95;;;13.68;;
45620;SDS011;31345;51.522;10.702;2023-06-22T02:04:42;23.83;;;14.13;;
45620;SDS011;31345;51.522;10.702;2023-06-22T02:07:14;23.00;;;13.95;;
45620;SDS011;31345;51.522;10.702;2023-06-22T02:09:49;16.25;;;13.48;;
45620;SDS011;31345;51.522;10.702;2023-06-22T02:12:22;23.10;;;13.73;;
45620;SDS011;31345;51.522;10.702;2023-06-22T02:14:59;21.73;;;14.75;;
45620;SDS011;31345;51.522;10.702;2023-06-22T02:17:33;21.55;;;13.32;;
45620;SDS011;31345;51.522;10.702;2023-06-22T02:20:01;22.85;;;14.35;;
45620;SDS011;31345;51.522;10.702;2023-06-22T02:22:40;17.52;;;14.32;;
45620;SDS011;31345;51.522;10.702;2023-06-22T02:25:15;19.02;;;12.73;;
45620;SDS011;31345;51.522;10.702;2023-06-22T02:27:50;18.58;;;14.18;;
45620;SDS011;31345;51.522;10.702;2023-06-22T02:30:24;19.88;;;12.82;;
45620;SDS011;31345;51.522;10.702;2023-06-22T02:32:57;20.88;;;12.82;;
45620;SDS011;31345;51.522;10.702;2023-06-22T02:35:30;23.48;;;13.60;;
45620;SDS011;31345;51.522;10.702;2023-06-22T02:37:58;19.35;;;12.02;;
45620;SDS011;31345;51.522;10.702;2023-06-22T02:40:31;21.17;;;13.48;;
45620;SDS011;31345;51.522;10.702;2023-06-22T02:43:04;23.60;;;12.82;;
45620;SDS011;31345;51.522;10.702;2023-06-22T02:45:38;19.83;;;12.20;;
45620;SDS011;31345;51.522;10.702;2023-06-22T02:48:11;27.02;;;14.57;;
45620;SDS011;31345;51.522;10.702;2023-06-22T02:50:43;22.90;;;14.20;;
45620;SDS011;31345;51.522;10.702;2023-06-22T02:53:16;21.45;;;13.25;;
45620;SDS011;31345;51.522;10.702;2023-06-22T02:55:46;21.77;;;14.00;;
45620;SDS011;31345;51.522;10.702;2023-06-22T02:58:14;21.40;;;13.80;;
45620;SDS011;31345;51.522;10.702;2023-06-22T03:00:49;22.67;;;13.75;;
45620;SDS011;31345;51.522;10.702;2023-06-22T03:03:24;22.85;;;14.05;;
45620;SDS011;31345;51.522;10.702;2023-06-22T03:05:57;22.92;;;14.70;;
45620;SDS011;31345;51.522;10.702;2023-06-22T03:08:32;19.52;;;12.77;;
45620;SDS011;31345;51.522;10.702;2023-06-22T03:10:59;20.42;;;14.82;;
45620;SDS011;31345;51.522;10.702;2023-06-22T03:13:32;19.13;;;13.57;;
45620;SDS011;31345;51.522;10.702;2023-06-22T03:16:06;21.73;;;13.73;;
45620;SDS011;31345;51.522;10.702;2023-06-22T03:18:33;22.45;;;14.85;;
45620;SDS011;31345;51.522;10.702;2023-06-22T03:21:01;26.27;;;14.60;;
45620;SDS011;31345;51.522;10.702;2023-06-22T03:23:31;21.63;;;14.75;;
45620;SDS011;31345;51.522;10.702;2023-06-22T03:26:04;21.17;;;14.45;;
45620;SDS011;31345;51.522;10.702;2023-06-22T03:28:37;26.10;;;14.57;;
45620;SDS011;31345;51.522;10.702;2023-06-22T03:31:11;22.95;;;14.70;;
45620;SDS011;31345;51.522;10.702;2023-06-22T03:33:40;24.23;;;13.68;;
45620;SDS011;31345;51.522;10.702;2023-06-22T03:36:15;21.85;;;14.35;;
45620;SDS011;31345;51.522;10.702;2023-06-22T03:38:45;21.23;;;15.05;;
45620;SDS011;31345;51.522;10.702;2023-06-22T03:41:18;21.77;;;15.27;;
45620;SDS011;31345;51.522;10.702;2023-06-22T03:43:51;21.90;;;14.13;;
45620;SDS011;31345;51.522;10.702;2023-06-22T03:46:25;18.63;;;13.48;;
45620;SDS011;31345;51.522;10.702;2023-06-22T03:48:58;24.13;;;15.32;;
45620;SDS011;31345;51.522;10.702;2023-06-22T03:51:30;19.20;;;15.32;;
45620;SDS011;31345;51.522;10.702;2023-06-22T03:54:03;25.45;;;14.15;;
45620;SDS011;31345;51.522;10.702;2023-06-22T03:56:31;24.85;;;14.80;;
45620;SDS011;31345;51.522;10.702;2023-06-22T03:59:04;24.98;;;15.05;;
45620;SDS011;31345;51.522;10.702;2023-06-22T04:01:32;21.38;;;14.10;;
45620;SDS011;31345;51.522;10.702;2023-06-22T04:04:05;21.48;;;14.02;;
45620;SDS011;31345;51.522;10.702;2023-06-22T04:06:38;21.75;;;15.88;;
45620;SDS011;31345;51.522;10.702;2023-06-22T04:09:10;21.77;;;13.93;;
45620;SDS011;31345;51.522;10.702;2023-06-22T04:11:43;27.13;;;15.65;;
45620;SDS011;31345;51.522;10.702;2023-06-22T04:14:16;26.02;;;14.48;;
45620;SDS011;31345;51.522;10.702;2023-06-22T04:16:51;26.95;;;16.10;;
45620;SDS011;31345;51.522;10.702;2023-06-22T04:19:23;23.27;;;15.55;;
45620;SDS011;31345;51.522;10.702;2023-06-22T04:21:56;20.27;;;14.07;;
45620;SDS011;31345;51.522;10.702;2023-06-22T04:24:29;25.25;;;14.82;;
45620;SDS011;31345;51.522;10.702;2023-06-22T04:27:01;27.80;;;14.52;;
45620;SDS011;31345;51.522;10.702;2023-06-22T04:29:34;25.48;;;14.55;;
45620;SDS011;31345;51.522;10.702;2023-06-22T04:32:08;27.73;;;15.98;;
45620;SDS011;31345;51.522;10.702;2023-06-22T04:34:38;30.30;;;18.67;;
45620;SDS011;31345;51.522;10.702;2023-06-22T04:37:11;27.92;;;16.73;;
45620;SDS011;31345;51.522;10.702;2023-06-22T04:39:41;22.15;;;16.58;;
45620;SDS011;31345;51.522;10.702;2023-06-22T04:42:14;31.17;;;17.83;;
45620;SDS011;31345;51.522;10.702;2023-06-22T04:44:46;26.27;;;16.50;;
45620;SDS011;31345;51.522;10.702;2023-06-22T04:47:20;19.35;;;15.48;;
45620;SDS011;31345;51.522;10.702;2023-06-22T04:49:53;22.27;;;16.17;;
45620;SDS011;31345;51.522;10.702;2023-06-22T04:52:20;21.92;;;15.43;;
45620;SDS011;31345;51.522;10.702;2023-06-22T04:54:53;24.00;;;15.32;;
45620;SDS011;31345;51.522;10.702;2023-06-22T04:57:30;26.30;;;15.32;;
45620;SDS011;31345;51.522;10.702;2023-06-22T04:59:59;20.98;;;14.57;;
45620;SDS011;31345;51.522;10.702;2023-06-22T05:02:43;17.33;;;14.77;;
45620;SDS011;31345;51.522;10.702;2023-06-22T05:05:16;18.50;;;14.07;;
45620;SDS011;31345;51.522;10.702;2023-06-22T05:07:44;18.95;;;15.00;;
45620;SDS011;31345;51.522;10.702;2023-06-22T05:10:14;21.00;;;15.70;;
45620;SDS011;31345;51.522;10.702;2023-06-22T05:12:46;28.00;;;16.20;;
45620;SDS011;31345;51.522;10.702;2023-06-22T05:15:19;25.45;;;17.52;;
45620;SDS011;31345;51.522;10.702;2023-06-22T05:17:54;26.38;;;16.30;;
45620;SDS011;31345;51.522;10.702;2023-06-22T05:20:27;22.92;;;14.77;;
45620;SDS011;31345;51.522;10.702;2023-06-22T05:22:59;16.55;;;14.82;;
45620;SDS011;31345;51.522;10.702;2023-06-22T05:25:32;22.75;;;16.13;;
45620;SDS011;31345;51.522;10.702;2023-06-22T05:28:04;21.50;;;15.70;;
45620;SDS011;31345;51.522;10.702;2023-06-22T05:30:42;20.23;;;15.93;;
45620;SDS011;31345;51.522;10.702;2023-06-22T05:33:16;16.92;;;13.85;;
45620;SDS011;31345;51.522;10.702;2023-06-22T05:35:49;19.77;;;14.20;;
45620;SDS011;31345;51.522;10.702;2023-06-22T05:38:21;23.83;;;16.50;;
45620;SDS011;31345;51.522;10.702;2023-06-22T05:40:54;19.20;;;15.65;;
45620;SDS011;31345;51.522;10.702;2023-06-22T05:43:27;28.35;;;16.33;;
45620;SDS011;31345;51.522;10.702;2023-06-22T05:45:54;20.45;;;15.32;;
45620;SDS011;31345;51.522;10.702;2023-06-22T05:48:28;24.58;;;15.80;;
45620;SDS011;31345;51.522;10.702;2023-06-22T05:51:01;23.50;;;16.60;;
45620;SDS011;31345;51.522;10.702;2023-06-22T05:53:28;22.88;;;17.83;;
45620;SDS011;31345;51.522;10.702;2023-06-22T05:56:01;28.13;;;18.40;;
45620;SDS011;31345;51.522;10.702;2023-06-22T05:58:35;23.17;;;18.00;;
45620;SDS011;31345;51.522;10.702;2023-06-22T06:01:03;26.20;;;17.77;;
45620;SDS011;31345;51.522;10.702;2023-06-22T06:03:37;27.40;;;16.95;;
45620;SDS011;31345;51.522;10.702;2023-06-22T06:06:12;22.48;;;16.40;;
45620;SDS011;31345;51.522;10.702;2023-06-22T06:08:45;26.33;;;18.00;;
45620;SDS011;31345;51.522;10.702;2023-06-22T06:11:17;22.38;;;16.88;;
45620;SDS011;31345;51.522;10.702;2023-06-22T06:13:45;19.20;;;15.30;;
45620;SDS011;31345;51.522;10.702;2023-06-22T06:16:17;26.10;;;17.58;;
45620;SDS011;31345;51.522;10.702;2023-06-22T06:18:51;25.42;;;18.38;;
45620;SDS011;31345;51.522;10.702;2023-06-22T06:21:25;27.00;;;18.38;;
45620;SDS011;31345;51.522;10.702;2023-06-22T06:23:58;21.08;;;18.35;;
45620;SDS011;31345;51.522;10.702;2023-06-22T06:26:30;23.50;;;18.27;;
45620;SDS011;31345;51.522;10.702;2023-06-22T06:29:03;19.90;;;16.85;;
45620;SDS011;31345;51.522;10.702;2023-06-22T06:31:31;20.48;;;15.50;;
45620;SDS011;31345;51.522;10.702;2023-06-22T06:34:00;16.58;;;14.75;;
45620;SDS011;31345;51.522;10.702;2023-06-22T06:36:33;16.80;;;15.10;;
45620;SDS011;31345;51.522;10.702;2023-06-22T06:39:05;18.98;;;16.73;;
45620;SDS011;31345;51.522;10.702;2023-06-22T06:41:38;16.75;;;14.80;;
45620;SDS011;31345;51.522;10.702;2023-06-22T06:46:52;17.42;;;15.15;;
45620;SDS011;31345;51.522;10.702;2023-06-22T06:49:26;17.10;;;15.20;;
45620;SDS011;31345;51.522;10.702;2023-06-22T06:51:59;19.15;;;17.13;;
45620;SDS011;31345;51.522;10.702;2023-06-22T06:54:31;22.33;;;17.45;;
45620;SDS011;31345;51.522;10.702;2023-06-22T06:57:04;17.70;;;15.88;;
45620;SDS011;31345;51.522;10.702;2023-06-22T06:59:36;19.90;;;15.80;;
45620;SDS011;31345;51.522;10.702;2023-06-22T07:02:09;19.73;;;16.48;;
45620;SDS011;31345;51.522;10.702;2023-06-22T07:04:43;22.17;;;17.30;;
45620;SDS011;31345;51.522;10.702;2023-06-22T07:07:16;19.33;;;16.15;;
45620;SDS011;31345;51.522;10.702;2023-06-22T07:09:49;18.65;;;16.63;;
45620;SDS011;31345;51.522;10.702;2023-06-22T07:12:21;19.85;;;16.73;;
45620;SDS011;31345;51.522;10.702;2023-06-22T07:14:57;20.73;;;16.15;;
45620;SDS011;31345;51.522;10.702;2023-06-22T07:17:33;18.10;;;15.45;;
45620;SDS011;31345;51.522;10.702;2023-06-22T07:20:08;20.40;;;17.58;;
45620;SDS011;31345;51.522;10.702;2023-06-22T07:22:43;19.08;;;15.95;;
45620;SDS011;31345;51.522;10.702;2023-06-22T07:25:12;19.75;;;16.58;;
45620;SDS011;31345;51.522;10.702;2023-06-22T07:27:43;20.27;;;17.63;;
45620;SDS011;31345;51.522;10.702;2023-06-22T07:30:17;20.17;;;16.70;;
45620;SDS011;31345;51.522;10.702;2023-06-22T07:32:49;24.45;;;17.02;;
45620;SDS011;31345;51.522;10.702;2023-06-22T07:35:27;21.42;;;19.10;;
45620;SDS011;31345;51.522;10.702;2023-06-22T07:37:55;21.55;;;19.02;;
45620;SDS011;31345;51.522;10.702;2023-06-22T07:40:27;24.67;;;18.15;;
45620;SDS011;31345;51.522;10.702;2023-06-22T07:42:55;23.50;;;19.40;;
45620;SDS011;31345;51.522;10.702;2023-06-22T07:45:27;24.13;;;19.60;;
45620;SDS011;31345;51.522;10.702;2023-06-22T07:48:04;23.20;;;18.92;;
45620;SDS011;31345;51.522;10.702;2023-06-22T07:50:38;20.83;;;17.23;;
45620;SDS011;31345;51.522;10.702;2023-06-22T07:53:10;19.58;;;17.55;;
45620;SDS011;31345;51.522;10.702;2023-06-22T07:55:42;24.45;;;20.40;;
45620;SDS011;31345;51.522;10.702;2023-06-22T07:58:15;22.92;;;19.17;;
45620;SDS011;31345;51.522;10.702;2023-06-22T08:00:45;21.95;;;19.65;;
45620;SDS011;31345;51.522;10.702;2023-06-22T08:03:17;21.65;;;16.75;;
45620;SDS011;31345;51.522;10.702;2023-06-22T08:05:51;20.05;;;16.90;;
45620;SDS011;31345;51.522;10.702;2023-06-22T08:08:23;18.83;;;16.67;;
45620;SDS011;31345;51.522;10.702;2023-06-22T08:10:56;19.30;;;16.75;;
45620;SDS011;31345;51.522;10.702;2023-06-22T08:13:28;19.02;;;15.05;;
45620;SDS011;31345;51.522;10.702;2023-06-22T08:16:01;18.98;;;16.92;;
45620;SDS011;31345;51.522;10.702;2023-06-22T08:18:33;17.80;;;15.52;;
45620;SDS011;31345;51.522;10.702;2023-06-22T08:21:07;19.35;;;16.42;;
45620;SDS011;31345;51.522;10.702;2023-06-22T08:23:40;23.45;;;17.98;;
45620;SDS011;31345;51.522;10.702;2023-06-22T08:26:13;20.40;;;18.30;;
45620;SDS011;31345;51.522;10.702;2023-06-22T08:28:46;20.35;;;17.52;;
45620;SDS011;31345;51.522;10.702;2023-06-22T08:31:18;23.80;;;21.20;;
45620;SDS011;31345;51.522;10.702;2023-06-22T08:33:46;22.83;;;18.40;;
45620;SDS011;31345;51.522;10.702;2023-06-22T08:36:20;24.45;;;20.88;;
45620;SDS011;31345;51.522;10.702;2023-06-22T08:38:52;25.85;;;19.40;;
45620;SDS011;31345;51.522;10.702;2023-06-22T08:41:20;21.83;;;19.05;;
45620;SDS011;31345;51.522;10.702;2023-06-22T08:43:47;19.63;;;17.10;;
45620;SDS011;31345;51.522;10.702;2023-06-22T08:46:20;20.23;;;17.17;;
45620;SDS011;31345;51.522;10.702;2023-06-22T08:48:54;20.42;;;17.30;;
45620;SDS011;31345;51.522;10.702;2023-06-22T08:51:28;18.48;;;15.93;;
45620;SDS011;31345;51.522;10.702;2023-06-22T08:54:00;21.05;;;17.77;;
45620;SDS011;31345;51.522;10.702;2023-06-22T08:56:33;19.83;;;16.70;;
45620;SDS011;31345;51.522;10.702;2023-06-22T08:59:05;17.35;;;15.07;;
45620;SDS011;31345;51.522;10.702;2023-06-22T09:01:39;15.57;;;13.90;;
45620;SDS011;31345;51.522;10.702;2023-06-22T09:04:11;17.27;;;15.48;;
45620;SDS011;31345;51.522;10.702;2023-06-22T09:06:45;15.70;;;13.90;;
45620;SDS011;31345;51.522;10.702;2023-06-22T09:09:17;16.95;;;15.15;;
45620;SDS011;31345;51.522;10.702;2023-06-22T09:11:50;16.58;;;14.88;;
45620;SDS011;31345;51.522;10.702;2023-06-22T09:14:18;16.55;;;13.40;;
45620;SDS011;31345;51.522;10.702;2023-06-22T09:16:53;12.50;;;11.25;;
45620;SDS011;31345;51.522;10.702;2023-06-22T09:19:25;16.70;;;13.00;;
45620;SDS011;31345;51.522;10.702;2023-06-22T09:21:54;13.00;;;11.15;;
45620;SDS011;31345;51.522;10.702;2023-06-22T09:24:22;15.93;;;12.68;;
45620;SDS011;31345;51.522;10.702;2023-06-22T09:26:54;14.10;;;12.07;;
45620;SDS011;31345;51.522;10.702;2023-06-22T09:29:27;14.23;;;12.73;;
45620;SDS011;31345;51.522;10.702;2023-06-22T09:31:59;12.88;;;11.02;;
45620;SDS011;31345;51.522;10.702;2023-06-22T09:34:32;12.43;;;11.02;;
45620;SDS011;31345;51.522;10.702;2023-06-22T09:37:01;12.00;;;9.40;;
45620;SDS011;31345;51.522;10.702;2023-06-22T09:39:34;12.80;;;9.60;;
45620;SDS011;31345;51.522;10.702;2023-06-22T09:42:07;11.27;;;8.55;;
45620;SDS011;31345;51.522;10.702;2023-06-22T09:44:40;10.23;;;8.48;;
45620;SDS011;31345;51.522;10.702;2023-06-22T09:47:07;11.50;;;8.63;;
45620;SDS011;31345;51.522;10.702;2023-06-22T09:49:35;9.98;;;8.95;;
45620;SDS011;31345;51.522;10.702;2023-06-22T09:52:09;9.65;;;8.60;;
45620;SDS011;31345;51.522;10.702;2023-06-22T09:54:37;8.82;;;7.93;;
45620;SDS011;31345;51.522;10.702;2023-06-22T09:57:09;9.30;;;7.72;;
45620;SDS011;31345;51.522;10.702;2023-06-22T09:59:37;9.65;;;8.43;;
45620;SDS011;31345;51.522;10.702;2023-06-22T10:02:10;11.32;;;8.48;;
45620;SDS011;31345;51.522;10.702;2023-06-22T10:04:44;13.75;;;8.82;;
45620;SDS011;31345;51.522;10.702;2023-06-22T10:07:18;9.20;;;8.27;;
45620;SDS011;31345;51.522;10.702;2023-06-22T10:09:50;8.15;;;7.35;;
45620;SDS011;31345;51.522;10.702;2023-06-22T10:12:23;9.05;;;8.15;;
45620;SDS011;31345;51.522;10.702;2023-06-22T10:14:50;10.68;;;8.25;;
45620;SDS011;31345;51.522;10.702;2023-06-22T10:17:17;9.00;;;8.15;;
45620;SDS011;31345;51.522;10.702;2023-06-22T10:19:50;10.82;;;8.32;;
45620;SDS011;31345;51.522;10.702;2023-06-22T10:22:24;9.80;;;7.63;;
45620;SDS011;31345;51.522;10.702;2023-06-22T10:24:56;7.85;;;6.47;;
45620;SDS011;31345;51.522;10.702;2023-06-22T10:27:29;11.63;;;7.60;;
45620;SDS011;31345;51.522;10.702;2023-06-22T10:29:57;9.05;;;7.65;;
45620;SDS011;31345;51.522;10.702;2023-06-22T10:32:29;12.35;;;9.07;;
45620;SDS011;31345;51.522;10.702;2023-06-22T10:35:02;11.73;;;8.70;;
45620;SDS011;31345;51.522;10.702;2023-06-22T10:37:36;10.23;;;8.70;;
45620;SDS011;31345;51.522;10.702;2023-06-22T10:40:09;10.40;;;8.07;;
45620;SDS011;31345;51.522;10.702;2023-06-22T10:42:42;10.27;;;8.57;;
45620;SDS011;31345;51.522;10.702;2023-06-22T10:45:15;10.90;;;9.23;;
45620;SDS011;31345;51.522;10.702;2023-06-22T10:47:48;9.98;;;8.63;;
45620;SDS011;31345;51.522;10.702;2023-06-22T10:50:20;10.55;;;8.57;;
45620;SDS011;31345;51.522;10.702;2023-06-22T10:52:51;10.43;;;9.00;;
45620;SDS011;31345;51.522;10.702;2023-06-22T10:55:23;11.02;;;9.18;;
45620;SDS011;31345;51.522;10.702;2023-06-22T10:57:56;9.88;;;8.48;;
45620;SDS011;31345;51.522;10.702;2023-06-22T11:00:28;10.88;;;8.98;;
45620;SDS011;31345;51.522;10.702;2023-06-22T11:03:01;10.63;;;8.95;;
45620;SDS011;31345;51.522;10.702;2023-06-22T11:05:33;9.48;;;7.80;;
45620;SDS011;31345;51.522;10.702;2023-06-22T11:08:03;10.43;;;8.23;;
45620;SDS011;31345;51.522;10.702;2023-06-22T11:10:37;11.27;;;8.88;;
45620;SDS011;31345;51.522;10.702;2023-06-22T11:13:09;10.25;;;8.35;;
45620;SDS011;31345;51.522;10.702;2023-06-22T11:15:37;13.98;;;10.85;;
45620;SDS011;31345;51.522;10.702;2023-06-22T11:18:14;10.95;;;9.20;;
45620;SDS011;31345;51.522;10.702;2023-06-22T11:20:48;10.30;;;8.98;;
45620;SDS011;31345;51.522;10.702;2023-06-22T11:23:22;10.13;;;9.13;;
45620;SDS011;31345;51.522;10.702;2023-06-22T11:25:57;11.93;;;10.23;;
45620;SDS011;31345;51.522;10.702;2023-06-22T11:28:29;12.02;;;9.55;;
45620;SDS011;31345;51.522;10.702;2023-06-22T11:30:56;11.45;;;9.70;;
45620;SDS011;31345;51.522;10.702;2023-06-22T11:33:29;11.10;;;9.77;;
45620;SDS011;31345;51.522;10.702;2023-06-22T11:36:02;12.55;;;9.15;;
45620;SDS011;31345;51.522;10.702;2023-06-22T11:38:31;11.50;;;10.40;;
45620;SDS011;31345;51.522;10.702;2023-06-22T11:41:04;12.07;;;10.00;;
45620;SDS011;31345;51.522;10.702;2023-06-22T11:43:32;10.77;;;9.63;;
45620;SDS011;31345;51.522;10.702;2023-06-22T11:46:05;10.85;;;9.18;;
45620;SDS011;31345;51.522;10.702;2023-06-22T11:48:33;10.60;;;9.45;;
45620;SDS011;31345;51.522;10.702;2023-06-22T11:51:05;9.98;;;8.60;;
45620;SDS011;31345;51.522;10.702;2023-06-22T11:53:40;10.02;;;8.60;;
45620;SDS011;31345;51.522;10.702;2023-06-22T11:56:08;10.57;;;9.48;;
45620;SDS011;31345;51.522;10.702;2023-06-22T11:58:40;12.15;;;9.55;;
45620;SDS011;31345;51.522;10.702;2023-06-22T12:01:12;10.30;;;9.20;;
45620;SDS011;31345;51.522;10.702;2023-06-22T12:03:46;13.13;;;9.68;;
45620;SDS011;31345;51.522;10.702;2023-06-22T12:06:19;15.93;;;10.70;;
45620;SDS011;31345;51.522;10.702;2023-06-22T12:08:53;15.38;;;10.52;;
45620;SDS011;31345;51.522;10.702;2023-06-22T12:11:25;11.32;;;9.75;;
45620;SDS011;31345;51.522;10.702;2023-06-22T12:13:58;11.77;;;10.05;;
45620;SDS011;31345;51.522;10.702;2023-06-22T12:16:32;15.20;;;10.30;;
45620;SDS011;31345;51.522;10.702;2023-06-22T12:19:05;14.02;;;9.77;;
45620;SDS011;31345;51.522;10.702;2023-06-22T12:21:37;12.20;;;9.25;;
45620;SDS011;31345;51.522;10.702;2023-06-22T12:24:13;13.10;;;9.95;;
45620;SDS011;31345;51.522;10.702;2023-06-22T12:26:45;11.55;;;10.15;;
45620;SDS011;31345;51.522;10.702;2023-06-22T12:29:17;11.80;;;10.60;;
45620;SDS011;31345;51.522;10.702;2023-06-22T12:31:45;12.38;;;9.52;;
45620;SDS011;31345;51.522;10.702;2023-06-22T12:34:17;11.20;;;9.95;;
45620;SDS011;31345;51.522;10.702;2023-06-22T12:36:50;12.32;;;9.95;;
45620;SDS011;31345;51.522;10.702;2023-06-22T12:39:26;11.85;;;10.20;;
45620;SDS011;31345;51.522;10.702;2023-06-22T12:41:59;14.85;;;10.32;;
45620;SDS011;31345;51.522;10.702;2023-06-22T12:44:31;11.00;;;9.30;;
45620;SDS011;31345;51.522;10.702;2023-06-22T12:47:04;11.18;;;9.55;;
45620;SDS011;31345;51.522;10.702;2023-06-22T12:49:37;14.57;;;9.63;;
45620;SDS011;31345;51.522;10.702;2023-06-22T12:52:09;12.32;;;9.63;;
45620;SDS011;31345;51.522;10.702;2023-06-22T12:54:44;10.75;;;9.63;;
45620;SDS011;31345;51.522;10.702;2023-06-22T12:57:16;10.02;;;9.02;;
45620;SDS011;31345;51.522;10.702;2023-06-22T12:59:50;10.88;;;9.23;;
45620;SDS011;31345;51.522;10.702;2023-06-22T13:02:22;10.68;;;9.40;;
45620;SDS011;31345;51.522;10.702;2023-06-22T13:04:55;10.70;;;9.20;;
45620;SDS011;31345;51.522;10.702;2023-06-22T13:07:28;12.32;;;7.82;;
45620;SDS011;31345;51.522;10.702;2023-06-22T13:10:02;10.75;;;8.95;;
45620;SDS011;31345;51.522;10.702;2023-06-22T13:12:35;11.05;;;8.68;;
45620;SDS011;31345;51.522;10.702;2023-06-22T13:15:07;10.48;;;8.25;;
45620;SDS011;31345;51.522;10.702;2023-06-22T13:17:40;9.30;;;8.25;;
45620;SDS011;31345;51.522;10.702;2023-06-22T13:20:12;10.13;;;8.75;;
45620;SDS011;31345;51.522;10.702;2023-06-22T13:22:45;9.65;;;8.55;;
45620;SDS011;31345;51.522;10.702;2023-06-22T13:25:19;9.38;;;8.38;;
45620;SDS011;31345;51.522;10.702;2023-06-22T13:27:54;13.38;;;8.82;;
45620;SDS011;31345;51.522;10.702;2023-06-22T13:30:27;8.82;;;7.93;;
45620;SDS011;31345;51.522;10.702;2023-06-22T13:32:54;10.35;;;8.13;;
45620;SDS011;31345;51.522;10.702;2023-06-22T13:35:22;9.55;;;7.20;;
45620;SDS011;31345;51.522;10.702;2023-06-22T13:37:55;12.27;;;8.50;;
45620;SDS011;31345;51.522;10.702;2023-06-22T13:40:29;8.85;;;7.95;;
45620;SDS011;31345;51.522;10.702;2023-06-22T13:42:56;13.10;;;8.27;;
45620;SDS011;31345;51.522;10.702;2023-06-22T13:45:29;10.02;;;8.32;;
45620;SDS011;31345;51.522;10.702;2023-06-22T13:48:01;8.57;;;7.68;;
45620;SDS011;31345;51.522;10.702;2023-06-22T13:50:34;9.77;;;7.70;;
45620;SDS011;31345;51.522;10.702;2023-06-22T13:53:07;9.13;;;7.15;;
45620;SDS011;31345;51.522;10.702;2023-06-22T13:55:36;9.05;;;6.88;;
45620;SDS011;31345;51.522;10.702;2023-06-22T13:58:09;8.40;;;7.32;;
45620;SDS011;31345;51.522;10.702;2023-06-22T14:00:36;9.75;;;7.70;;
45620;SDS011;31345;51.522;10.702;2023-06-22T14:03:04;9.07;;;7.78;;
45620;SDS011;31345;51.522;10.702;2023-06-22T14:05:36;12.07;;;7.75;;
45620;SDS011;31345;51.522;10.702;2023-06-22T14:08:09;9.07;;;7.57;;
45620;SDS011;31345;51.522;10.702;2023-06-22T14:10:45;8.75;;;6.90;;
45620;SDS011;31345;51.522;10.702;2023-06-22T14:13:18;12.38;;;7.70;;
45620;SDS011;31345;51.522;10.702;2023-06-22T14:15:50;10.23;;;8.10;;
45620;SDS011;31345;51.522;10.702;2023-06-22T14:18:20;11.27;;;7.68;;
45620;SDS011;31345;51.522;10.702;2023-06-22T14:20:48;10.48;;;7.22;;
45620;SDS011;31345;51.522;10.702;2023-06-22T14:23:20;11.63;;;7.75;;
45620;SDS011;31345;51.522;10.702;2023-06-22T14:25:54;8.48;;;7.57;;
45620;SDS011;31345;51.522;10.702;2023-06-22T14:28:27;10.48;;;7.88;;
45620;SDS011;31345;51.522;10.702;2023-06-22T14:30:59;11.30;;;8.20;;
45620;SDS011;31345;51.522;10.702;2023-06-22T14:33:32;9.80;;;7.78;;
45620;SDS011;31345;51.522;10.702;2023-06-22T14:36:00;10.68;;;7.35;;
45620;SDS011;31345;51.522;10.702;2023-06-22T14:38:32;8.90;;;7.50;;
45620;SDS011;31345;51.522;10.702;2023-06-22T14:41:06;8.65;;;7.75;;
45620;SDS011;31345;51.522;10.702;2023-06-22T14:43:42;8.80;;;7.47;;
45620;SDS011;31345;51.522;10.702;2023-06-22T14:46:17;11.10;;;7.75;;